sensor_id;sensor_type;location;lat;lon;timestamp;temperature;humidity
921;DHT22;447;51.332;6.778;2023-03-14T00:00:15;12.30;99.90
921;DHT22;447;51.332;6.778;2023-03-14T00:02:42;12.30;99.90
921;DHT22;447;51.332;6.778;2023-03-14T00:05:08;12.40;99.90
921;DHT22;447;51.332;6.778;2023-03-14T00:07:39;12.40;99.90
921;DHT22;447;51.332;6.778;2023-03-14T00:10:10;12.30;99.90
921;DHT22;447;51.332;6.778;2023-03-14T00:12:37;12.30;99.90
921;DHT22;447;51.332;6.778;2023-03-14T00:15:07;12.30;99.90
921;DHT22;447;51.332;6.778;2023-03-14T00:17:35;12.30;99.90
921;DHT22;447;51.332;6.778;2023-03-14T00:20:03;12.30;99.90
921;DHT22;447;51.332;6.778;2023-03-14T00:22:39;12.30;99.90
921;DHT22;447;51.332;6.778;2023-03-14T00:25:09;12.30;99.90
921;DHT22;447;51.332;6.778;2023-03-14T00:27:35;12.30;99.90
921;DHT22;447;51.332;6.778;2023-03-14T00:30:05;12.30;99.90
921;DHT22;447;51.332;6.778;2023-03-14T00:32:35;12.30;99.90
921;DHT22;447;51.332;6.778;2023-03-14T00:35:04;12.20;99.90
921;DHT22;447;51.332;6.778;2023-03-14T00:37:33;12.30;99.90
921;DHT22;447;51.332;6.778;2023-03-14T00:39:59;12.30;99.90
921;DHT22;447;51.332;6.778;2023-03-14T00:42:27;12.30;99.90
921;DHT22;447;51.332;6.778;2023-03-14T00:44:53;12.20;99.90
921;DHT22;447;51.332;6.778;2023-03-14T00:47:21;12.20;99.90
921;DHT22;447;51.332;6.778;2023-03-14T00:49:47;12.20;99.90
921;DHT22;447;51.332;6.778;2023-03-14T00:52:15;12.20;99.90
921;DHT22;447;51.332;6.778;2023-03-14T00:54:42;12.10;99.90
921;DHT22;447;51.332;6.778;2023-03-14T00:57:08;12.10;99.90
921;DHT22;447;51.332;6.778;2023-03-14T00:59:33;12.10;99.90
921;DHT22;447;51.332;6.778;2023-03-14T01:02:02;12.10;99.90
921;DHT22;447;51.332;6.778;2023-03-14T01:04:28;12.10;99.90
921;DHT22;447;51.332;6.778;2023-03-14T01:07:00;12.10;99.90
921;DHT22;447;51.332;6.778;2023-03-14T01:09:29;12.10;99.90
921;DHT22;447;51.332;6.778;2023-03-14T01:11:54;12.10;99.90
921;DHT22;447;51.332;6.778;2023-03-14T01:14:21;12.00;99.90
921;DHT22;447;51.332;6.778;2023-03-14T01:16:51;12.00;99.90
921;DHT22;447;51.332;6.778;2023-03-14T01:19:22;12.00;99.90
921;DHT22;447;51.332;6.778;2023-03-14T01:21:48;12.00;99.90
921;DHT22;447;51.332;6.778;2023-03-14T01:24:14;12.00;99.90
921;DHT22;447;51.332;6.778;2023-03-14T01:26:40;12.00;99.90
921;DHT22;447;51.332;6.778;2023-03-14T01:29:07;12.00;99.90
921;DHT22;447;51.332;6.778;2023-03-14T01:31:35;12.00;99.90
921;DHT22;447;51.332;6.778;2023-03-14T01:34:02;12.00;99.90
921;DHT22;447;51.332;6.778;2023-03-14T01:36:28;11.90;99.90
921;DHT22;447;51.332;6.778;2023-03-14T01:38:54;11.90;99.90
921;DHT22;447;51.332;6.778;2023-03-14T01:41:24;11.90;99.90
921;DHT22;447;51.332;6.778;2023-03-14T01:43:53;11.90;99.90
921;DHT22;447;51.332;6.778;2023-03-14T01:46:40;11.90;99.90
921;DHT22;447;51.332;6.778;2023-03-14T01:49:32;11.90;99.90
921;DHT22;447;51.332;6.778;2023-03-14T01:52:11;11.90;99.90
921;DHT22;447;51.332;6.778;2023-03-14T01:54:39;11.90;99.90
921;DHT22;447;51.332;6.778;2023-03-14T01:57:19;11.90;99.90
921;DHT22;447;51.332;6.778;2023-03-14T01:59:59;11.90;99.90
921;DHT22;447;51.332;6.778;2023-03-14T02:02:27;11.90;99.90
921;DHT22;447;51.332;6.778;2023-03-14T02:04:59;11.80;99.90
921;DHT22;447;51.332;6.778;2023-03-14T02:07:39;11.80;99.90
921;DHT22;447;51.332;6.778;2023-03-14T02:10:15;11.80;99.90
921;DHT22;447;51.332;6.778;2023-03-14T02:12:42;11.80;99.90
921;DHT22;447;51.332;6.778;2023-03-14T02:15:13;11.80;99.90
921;DHT22;447;51.332;6.778;2023-03-14T02:17:52;11.80;99.90
921;DHT22;447;51.332;6.778;2023-03-14T02:20:58;11.80;99.90
921;DHT22;447;51.332;6.778;2023-03-14T02:29:32;11.80;99.90
921;DHT22;447;51.332;6.778;2023-03-14T02:32:00;11.80;99.90
921;DHT22;447;51.332;6.778;2023-03-14T02:34:26;11.80;99.90
921;DHT22;447;51.332;6.778;2023-03-14T02:36:57;11.80;99.90
921;DHT22;447;51.332;6.778;2023-03-14T02:39:41;11.80;99.90
921;DHT22;447;51.332;6.778;2023-03-14T02:42:12;11.80;99.90
921;DHT22;447;51.332;6.778;2023-03-14T02:48:05;11.80;99.90
921;DHT22;447;51.332;6.778;2023-03-14T02:50:36;11.80;99.90
921;DHT22;447;51.332;6.778;2023-03-14T02:53:03;11.80;99.90
921;DHT22;447;51.332;6.778;2023-03-14T02:55:32;11.80;99.90
921;DHT22;447;51.332;6.778;2023-03-14T02:58:04;11.80;99.90
921;DHT22;447;51.332;6.778;2023-03-14T03:00:32;11.80;99.90
921;DHT22;447;51.332;6.778;2023-03-14T03:02:59;11.80;99.90
921;DHT22;447;51.332;6.778;2023-03-14T03:05:27;11.80;99.90
921;DHT22;447;51.332;6.778;2023-03-14T03:07:53;11.70;99.90
921;DHT22;447;51.332;6.778;2023-03-14T03:10:21;11.70;99.90
921;DHT22;447;51.332;6.778;2023-03-14T03:12:50;11.70;99.90
921;DHT22;447;51.332;6.778;2023-03-14T03:15:17;11.70;99.90
921;DHT22;447;51.332;6.778;2023-03-14T03:17:43;11.70;99.90
921;DHT22;447;51.332;6.778;2023-03-14T03:20:11;11.70;99.90
921;DHT22;447;51.332;6.778;2023-03-14T03:22:39;11.70;99.90
921;DHT22;447;51.332;6.778;2023-03-14T03:25:09;11.70;99.90
921;DHT22;447;51.332;6.778;2023-03-14T03:27:38;11.70;99.90
921;DHT22;447;51.332;6.778;2023-03-14T03:30:07;11.70;99.90
921;DHT22;447;51.332;6.778;2023-03-14T03:32:41;11.70;99.90
921;DHT22;447;51.332;6.778;2023-03-14T03:35:10;11.70;99.90
921;DHT22;447;51.332;6.778;2023-03-14T03:37:39;11.70;99.90
921;DHT22;447;51.332;6.778;2023-03-14T03:40:13;11.70;99.90
921;DHT22;447;51.332;6.778;2023-03-14T03:42:39;11.70;99.90
921;DHT22;447;51.332;6.778;2023-03-14T03:45:09;11.70;99.90
921;DHT22;447;51.332;6.778;2023-03-14T03:47:41;11.70;99.90
921;DHT22;447;51.332;6.778;2023-03-14T03:50:12;11.70;99.90
921;DHT22;447;51.332;6.778;2023-03-14T03:52:41;11.70;99.90
921;DHT22;447;51.332;6.778;2023-03-14T03:55:07;11.70;99.90
921;DHT22;447;51.332;6.778;2023-03-14T03:57:33;11.60;99.90
921;DHT22;447;51.332;6.778;2023-03-14T03:59:59;11.60;99.90
921;DHT22;447;51.332;6.778;2023-03-14T04:02:29;11.60;99.90
921;DHT22;447;51.332;6.778;2023-03-14T04:04:55;11.60;99.90
921;DHT22;447;51.332;6.778;2023-03-14T04:07:26;11.60;99.90
921;DHT22;447;51.332;6.778;2023-03-14T04:09:55;11.60;99.90
921;DHT22;447;51.332;6.778;2023-03-14T04:12:36;11.60;99.90
921;DHT22;447;51.332;6.778;2023-03-14T04:15:16;11.60;99.90
921;DHT22;447;51.332;6.778;2023-03-14T04:17:46;11.60;99.90
921;DHT22;447;51.332;6.778;2023-03-14T04:20:16;11.50;99.90
921;DHT22;447;51.332;6.778;2023-03-14T04:22:44;11.50;99.90
921;DHT22;447;51.332;6.778;2023-03-14T04:25:10;11.50;99.90
921;DHT22;447;51.332;6.778;2023-03-14T04:27:43;11.50;99.90
921;DHT22;447;51.332;6.778;2023-03-14T04:30:18;11.50;99.90
921;DHT22;447;51.332;6.778;2023-03-14T04:32:49;11.50;99.90
921;DHT22;447;51.332;6.778;2023-03-14T04:35:15;11.40;99.90
921;DHT22;447;51.332;6.778;2023-03-14T04:37:42;11.40;99.90
921;DHT22;447;51.332;6.778;2023-03-14T04:40:10;11.40;99.90
921;DHT22;447;51.332;6.778;2023-03-14T04:42:39;11.40;99.90
921;DHT22;447;51.332;6.778;2023-03-14T04:45:09;11.30;99.90
921;DHT22;447;51.332;6.778;2023-03-14T04:47:38;11.40;99.90
921;DHT22;447;51.332;6.778;2023-03-14T04:50:06;11.30;99.90
921;DHT22;447;51.332;6.778;2023-03-14T04:52:32;11.30;99.90
921;DHT22;447;51.332;6.778;2023-03-14T04:55:00;11.30;99.90
921;DHT22;447;51.332;6.778;2023-03-14T04:57:27;11.30;99.90
921;DHT22;447;51.332;6.778;2023-03-14T04:59:54;11.30;99.90
921;DHT22;447;51.332;6.778;2023-03-14T05:02:49;11.30;99.90
921;DHT22;447;51.332;6.778;2023-03-14T05:05:21;11.30;99.90
921;DHT22;447;51.332;6.778;2023-03-14T05:08:12;11.30;99.90
921;DHT22;447;51.332;6.778;2023-03-14T05:11:04;11.30;99.90
921;DHT22;447;51.332;6.778;2023-03-14T05:13:52;11.20;99.90
921;DHT22;447;51.332;6.778;2023-03-14T05:16:33;11.30;99.90
921;DHT22;447;51.332;6.778;2023-03-14T05:19:04;11.30;99.90
921;DHT22;447;51.332;6.778;2023-03-14T05:21:36;11.30;99.90
921;DHT22;447;51.332;6.778;2023-03-14T05:24:15;11.30;99.90
921;DHT22;447;51.332;6.778;2023-03-14T05:26:57;11.30;99.90
921;DHT22;447;51.332;6.778;2023-03-14T05:29:56;11.30;99.90
921;DHT22;447;51.332;6.778;2023-03-14T05:32:59;11.30;99.90
921;DHT22;447;51.332;6.778;2023-03-14T05:35:50;11.30;99.90
921;DHT22;447;51.332;6.778;2023-03-14T05:38:45;11.30;99.90
921;DHT22;447;51.332;6.778;2023-03-14T05:41:30;11.30;99.90
921;DHT22;447;51.332;6.778;2023-03-14T05:44:18;11.30;99.90
921;DHT22;447;51.332;6.778;2023-03-14T05:47:10;11.30;99.90
921;DHT22;447;51.332;6.778;2023-03-14T05:49:47;11.30;99.90
921;DHT22;447;51.332;6.778;2023-03-14T05:52:30;11.30;99.90
921;DHT22;447;51.332;6.778;2023-03-14T05:55:22;11.30;99.90
921;DHT22;447;51.332;6.778;2023-03-14T05:58:04;11.30;99.90
921;DHT22;447;51.332;6.778;2023-03-14T06:00:45;11.30;99.90
921;DHT22;447;51.332;6.778;2023-03-14T06:03:26;11.30;99.90
921;DHT22;447;51.332;6.778;2023-03-14T06:05:54;11.30;99.90
921;DHT22;447;51.332;6.778;2023-03-14T06:08:25;11.20;99.90
921;DHT22;447;51.332;6.778;2023-03-14T06:10:52;11.20;99.90
921;DHT22;447;51.332;6.778;2023-03-14T06:13:23;11.20;99.90
921;DHT22;447;51.332;6.778;2023-03-14T06:15:51;11.20;99.90
921;DHT22;447;51.332;6.778;2023-03-14T06:18:17;11.20;99.90
921;DHT22;447;51.332;6.778;2023-03-14T06:20:43;11.20;99.90
921;DHT22;447;51.332;6.778;2023-03-14T06:23:12;11.30;99.90
921;DHT22;447;51.332;6.778;2023-03-14T06:25:39;11.20;99.90
921;DHT22;447;51.332;6.778;2023-03-14T06:28:07;11.20;99.90
921;DHT22;447;51.332;6.778;2023-03-14T06:30:38;11.20;99.90
921;DHT22;447;51.332;6.778;2023-03-14T06:33:04;11.20;99.90
921;DHT22;447;51.332;6.778;2023-03-14T06:35:30;11.20;99.90
921;DHT22;447;51.332;6.778;2023-03-14T06:38:01;11.20;99.90
921;DHT22;447;51.332;6.778;2023-03-14T06:40:30;11.20;99.90
921;DHT22;447;51.332;6.778;2023-03-14T06:43:06;11.20;99.90
921;DHT22;447;51.332;6.778;2023-03-14T06:45:33;11.20;99.90
921;DHT22;447;51.332;6.778;2023-03-14T06:48:02;11.20;99.90
921;DHT22;447;51.332;6.778;2023-03-14T06:50:48;11.20;99.90
921;DHT22;447;51.332;6.778;2023-03-14T06:53:19;11.20;99.90
921;DHT22;447;51.332;6.778;2023-03-14T06:55:46;11.20;99.90
921;DHT22;447;51.332;6.778;2023-03-14T06:58:14;11.20;99.90
921;DHT22;447;51.332;6.778;2023-03-14T07:00:45;11.20;99.90
921;DHT22;447;51.332;6.778;2023-03-14T07:03:16;11.20;99.90
921;DHT22;447;51.332;6.778;2023-03-14T07:05:46;11.20;99.90
921;DHT22;447;51.332;6.778;2023-03-14T07:08:12;11.20;99.90
921;DHT22;447;51.332;6.778;2023-03-14T07:10:38;11.20;99.90
921;DHT22;447;51.332;6.778;2023-03-14T07:13:06;11.20;99.90
921;DHT22;447;51.332;6.778;2023-03-14T07:15:42;11.20;99.90
921;DHT22;447;51.332;6.778;2023-03-14T07:18:09;11.20;99.90
921;DHT22;447;51.332;6.778;2023-03-14T07:20:38;11.20;99.90
921;DHT22;447;51.332;6.778;2023-03-14T07:23:05;11.20;99.90
921;DHT22;447;51.332;6.778;2023-03-14T07:25:43;11.20;99.90
921;DHT22;447;51.332;6.778;2023-03-14T07:28:11;11.20;99.90
921;DHT22;447;51.332;6.778;2023-03-14T07:30:42;11.20;99.90
921;DHT22;447;51.332;6.778;2023-03-14T07:33:16;11.20;99.90
921;DHT22;447;51.332;6.778;2023-03-14T07:35:43;11.20;99.90
921;DHT22;447;51.332;6.778;2023-03-14T07:38:11;11.20;99.90
921;DHT22;447;51.332;6.778;2023-03-14T07:41:01;11.20;99.90
921;DHT22;447;51.332;6.778;2023-03-14T07:43:33;11.20;99.90
921;DHT22;447;51.332;6.778;2023-03-14T07:46:00;11.20;99.90
921;DHT22;447;51.332;6.778;2023-03-14T07:48:33;11.20;99.90
921;DHT22;447;51.332;6.778;2023-03-14T07:50:59;11.20;99.90
921;DHT22;447;51.332;6.778;2023-03-14T07:53:26;11.20;99.90
921;DHT22;447;51.332;6.778;2023-03-14T07:55:56;11.20;99.90
921;DHT22;447;51.332;6.778;2023-03-14T07:58:25;11.30;99.90
921;DHT22;447;51.332;6.778;2023-03-14T08:00:52;11.20;99.90
921;DHT22;447;51.332;6.778;2023-03-14T08:03:18;11.20;99.90
921;DHT22;447;51.332;6.778;2023-03-14T08:05:47;11.20;99.90
921;DHT22;447;51.332;6.778;2023-03-14T08:08:13;11.20;99.90
921;DHT22;447;51.332;6.778;2023-03-14T08:10:39;11.30;99.90
921;DHT22;447;51.332;6.778;2023-03-14T08:13:05;11.20;99.90
921;DHT22;447;51.332;6.778;2023-03-14T08:15:38;11.20;99.90
921;DHT22;447;51.332;6.778;2023-03-14T08:18:05;11.20;99.90
921;DHT22;447;51.332;6.778;2023-03-14T08:20:32;11.20;99.90
921;DHT22;447;51.332;6.778;2023-03-14T08:23:01;11.20;99.90
921;DHT22;447;51.332;6.778;2023-03-14T08:25:29;11.30;99.90
921;DHT22;447;51.332;6.778;2023-03-14T08:27:58;11.30;99.90
921;DHT22;447;51.332;6.778;2023-03-14T08:30:30;11.30;99.90
921;DHT22;447;51.332;6.778;2023-03-14T08:32:58;11.30;99.90
921;DHT22;447;51.332;6.778;2023-03-14T08:35:27;11.30;99.90
921;DHT22;447;51.332;6.778;2023-03-14T08:37:53;11.30;99.90
921;DHT22;447;51.332;6.778;2023-03-14T08:40:21;11.30;99.90
921;DHT22;447;51.332;6.778;2023-03-14T08:42:47;11.30;99.90
921;DHT22;447;51.332;6.778;2023-03-14T08:45:17;11.30;99.90
921;DHT22;447;51.332;6.778;2023-03-14T08:48:01;11.30;99.90
921;DHT22;447;51.332;6.778;2023-03-14T08:50:27;11.30;99.90
921;DHT22;447;51.332;6.778;2023-03-14T08:52:55;11.30;99.90
921;DHT22;447;51.332;6.778;2023-03-14T08:55:30;11.30;99.90
921;DHT22;447;51.332;6.778;2023-03-14T08:58:03;11.30;99.90
921;DHT22;447;51.332;6.778;2023-03-14T09:00:31;11.30;99.90
921;DHT22;447;51.332;6.778;2023-03-14T09:02:59;11.30;99.90
921;DHT22;447;51.332;6.778;2023-03-14T09:05:28;11.30;99.90
921;DHT22;447;51.332;6.778;2023-03-14T09:07:54;11.30;99.90
921;DHT22;447;51.332;6.778;2023-03-14T09:10:22;11.30;99.90
921;DHT22;447;51.332;6.778;2023-03-14T09:12:48;11.30;99.90
921;DHT22;447;51.332;6.778;2023-03-14T09:15:18;11.30;99.90
921;DHT22;447;51.332;6.778;2023-03-14T09:17:49;11.30;99.90
921;DHT22;447;51.332;6.778;2023-03-14T09:20:16;11.30;99.90
921;DHT22;447;51.332;6.778;2023-03-14T09:22:42;11.30;99.90
921;DHT22;447;51.332;6.778;2023-03-14T09:25:13;11.30;99.90
921;DHT22;447;51.332;6.778;2023-03-14T09:27:39;11.30;99.90
921;DHT22;447;51.332;6.778;2023-03-14T09:30:08;11.30;99.90
921;DHT22;447;51.332;6.778;2023-03-14T09:32:34;11.30;99.90
921;DHT22;447;51.332;6.778;2023-03-14T09:35:00;11.30;99.90
921;DHT22;447;51.332;6.778;2023-03-14T09:37:29;11.20;99.90
921;DHT22;447;51.332;6.778;2023-03-14T09:40:01;11.20;99.90
921;DHT22;447;51.332;6.778;2023-03-14T09:42:38;11.20;99.90
921;DHT22;447;51.332;6.778;2023-03-14T09:45:31;11.20;99.90
921;DHT22;447;51.332;6.778;2023-03-14T09:47:58;11.10;99.90
921;DHT22;447;51.332;6.778;2023-03-14T09:50:25;11.10;99.90
921;DHT22;447;51.332;6.778;2023-03-14T09:53:02;11.10;99.90
921;DHT22;447;51.332;6.778;2023-03-14T09:55:33;11.10;99.90
921;DHT22;447;51.332;6.778;2023-03-14T09:58:03;11.10;99.90
921;DHT22;447;51.332;6.778;2023-03-14T10:00:39;11.10;99.90
921;DHT22;447;51.332;6.778;2023-03-14T10:03:25;11.00;99.90
921;DHT22;447;51.332;6.778;2023-03-14T10:05:57;11.00;99.90
921;DHT22;447;51.332;6.778;2023-03-14T10:08:27;11.00;99.90
921;DHT22;447;51.332;6.778;2023-03-14T10:10:53;11.00;99.90
921;DHT22;447;51.332;6.778;2023-03-14T10:13:26;11.00;99.90
921;DHT22;447;51.332;6.778;2023-03-14T10:16:04;11.00;99.90
921;DHT22;447;51.332;6.778;2023-03-14T10:18:36;11.00;99.90
921;DHT22;447;51.332;6.778;2023-03-14T10:23:37;11.00;99.90
921;DHT22;447;51.332;6.778;2023-03-14T10:26:16;11.00;99.90
921;DHT22;447;51.332;6.778;2023-03-14T10:28:45;10.90;99.90
921;DHT22;447;51.332;6.778;2023-03-14T10:31:12;10.90;99.90
921;DHT22;447;51.332;6.778;2023-03-14T10:33:38;10.90;99.90
921;DHT22;447;51.332;6.778;2023-03-14T10:36:23;10.90;99.90
921;DHT22;447;51.332;6.778;2023-03-14T10:39:15;10.90;99.90
921;DHT22;447;51.332;6.778;2023-03-14T10:41:48;10.90;99.90
921;DHT22;447;51.332;6.778;2023-03-14T10:44:14;10.90;99.90
921;DHT22;447;51.332;6.778;2023-03-14T10:46:42;10.90;99.90
921;DHT22;447;51.332;6.778;2023-03-14T10:49:29;10.90;99.90
921;DHT22;447;51.332;6.778;2023-03-14T10:51:55;10.90;99.90
921;DHT22;447;51.332;6.778;2023-03-14T10:54:30;10.90;99.90
921;DHT22;447;51.332;6.778;2023-03-14T10:56:58;10.90;99.90
921;DHT22;447;51.332;6.778;2023-03-14T10:59:27;10.90;99.90
921;DHT22;447;51.332;6.778;2023-03-14T11:02:00;10.90;99.90
921;DHT22;447;51.332;6.778;2023-03-14T11:07:44;10.90;99.90
921;DHT22;447;51.332;6.778;2023-03-14T11:10:33;10.90;99.90
921;DHT22;447;51.332;6.778;2023-03-14T11:13:16;10.80;99.90
921;DHT22;447;51.332;6.778;2023-03-14T11:21:46;10.80;99.90
921;DHT22;447;51.332;6.778;2023-03-14T11:24:17;10.80;99.90
921;DHT22;447;51.332;6.778;2023-03-14T11:29:47;10.80;99.90
921;DHT22;447;51.332;6.778;2023-03-14T11:34:55;10.80;99.90
921;DHT22;447;51.332;6.778;2023-03-14T11:37:29;10.80;99.90
921;DHT22;447;51.332;6.778;2023-03-14T11:40:19;10.80;99.90
921;DHT22;447;51.332;6.778;2023-03-14T11:43:18;10.80;99.90
921;DHT22;447;51.332;6.778;2023-03-14T11:45:51;10.80;99.90
921;DHT22;447;51.332;6.778;2023-03-14T11:48:38;10.80;99.90
921;DHT22;447;51.332;6.778;2023-03-14T11:51:23;10.70;99.90
921;DHT22;447;51.332;6.778;2023-03-14T11:59:24;10.70;99.90
921;DHT22;447;51.332;6.778;2023-03-14T12:02:04;10.70;99.90
921;DHT22;447;51.332;6.778;2023-03-14T12:07:58;10.80;99.90
921;DHT22;447;51.332;6.778;2023-03-14T12:10:20;10.70;99.90
921;DHT22;447;51.332;6.778;2023-03-14T12:12:47;10.70;99.90
921;DHT22;447;51.332;6.778;2023-03-14T12:15:21;10.70;99.90
921;DHT22;447;51.332;6.778;2023-03-14T12:17:56;10.70;99.90
921;DHT22;447;51.332;6.778;2023-03-14T12:20:26;10.70;99.90
921;DHT22;447;51.332;6.778;2023-03-14T12:22:53;10.70;99.90
921;DHT22;447;51.332;6.778;2023-03-14T12:25:24;10.70;99.90
921;DHT22;447;51.332;6.778;2023-03-14T12:33:27;10.70;99.90
921;DHT22;447;51.332;6.778;2023-03-14T12:36:03;10.80;99.90
921;DHT22;447;51.332;6.778;2023-03-14T12:43:34;10.80;99.90
921;DHT22;447;51.332;6.778;2023-03-14T12:46:08;10.80;99.90
921;DHT22;447;51.332;6.778;2023-03-14T12:48:37;10.80;99.90
921;DHT22;447;51.332;6.778;2023-03-14T12:51:12;10.80;99.90
921;DHT22;447;51.332;6.778;2023-03-14T12:56:25;10.70;99.90
921;DHT22;447;51.332;6.778;2023-03-14T12:59:15;10.70;99.90
921;DHT22;447;51.332;6.778;2023-03-14T13:01:55;10.70;99.90
921;DHT22;447;51.332;6.778;2023-03-14T13:04:34;10.70;99.90
921;DHT22;447;51.332;6.778;2023-03-14T13:07:04;10.80;99.90
921;DHT22;447;51.332;6.778;2023-03-14T13:12:13;10.70;99.90
921;DHT22;447;51.332;6.778;2023-03-14T13:14:49;10.70;99.90
921;DHT22;447;51.332;6.778;2023-03-14T13:17:32;10.70;99.90
921;DHT22;447;51.332;6.778;2023-03-14T13:20:02;10.80;99.90
921;DHT22;447;51.332;6.778;2023-03-14T13:22:36;10.70;99.90
921;DHT22;447;51.332;6.778;2023-03-14T13:25:10;10.70;99.90
921;DHT22;447;51.332;6.778;2023-03-14T13:27:40;10.70;99.90
921;DHT22;447;51.332;6.778;2023-03-14T13:30:16;10.80;99.90
921;DHT22;447;51.332;6.778;2023-03-14T13:32:44;10.70;99.90
921;DHT22;447;51.332;6.778;2023-03-14T13:35:37;10.70;99.90
921;DHT22;447;51.332;6.778;2023-03-14T13:38:04;10.70;99.90
921;DHT22;447;51.332;6.778;2023-03-14T13:40:32;10.70;99.90
921;DHT22;447;51.332;6.778;2023-03-14T13:46:06;10.70;99.90
921;DHT22;447;51.332;6.778;2023-03-14T13:48:43;10.70;99.90
921;DHT22;447;51.332;6.778;2023-03-14T13:51:15;10.70;99.90
921;DHT22;447;51.332;6.778;2023-03-14T13:53:53;10.70;99.90
921;DHT22;447;51.332;6.778;2023-03-14T13:56:21;10.70;99.90
921;DHT22;447;51.332;6.778;2023-03-14T13:58:48;10.70;99.90
921;DHT22;447;51.332;6.778;2023-03-14T14:03:52;10.70;99.90
921;DHT22;447;51.332;6.778;2023-03-14T14:08:47;10.70;99.90
921;DHT22;447;51.332;6.778;2023-03-14T14:11:27;10.70;99.90
921;DHT22;447;51.332;6.778;2023-03-14T14:13:56;10.80;99.90
921;DHT22;447;51.332;6.778;2023-03-14T14:16:25;10.80;99.90
921;DHT22;447;51.332;6.778;2023-03-14T14:18:55;10.80;99.90
921;DHT22;447;51.332;6.778;2023-03-14T14:21:22;10.80;99.90
921;DHT22;447;51.332;6.778;2023-03-14T14:23:54;10.80;99.90
921;DHT22;447;51.332;6.778;2023-03-14T14:26:22;10.80;99.90
921;DHT22;447;51.332;6.778;2023-03-14T14:29:04;10.80;99.90
921;DHT22;447;51.332;6.778;2023-03-14T14:31:30;10.70;99.90
921;DHT22;447;51.332;6.778;2023-03-14T14:34:02;10.70;99.90
921;DHT22;447;51.332;6.778;2023-03-14T14:36:44;10.70;99.90
921;DHT22;447;51.332;6.778;2023-03-14T14:39:24;10.70;99.90
921;DHT22;447;51.332;6.778;2023-03-14T14:41:53;10.70;99.90
921;DHT22;447;51.332;6.778;2023-03-14T14:44:30;10.70;99.90
921;DHT22;447;51.332;6.778;2023-03-14T14:47:04;10.70;99.90
921;DHT22;447;51.332;6.778;2023-03-14T14:49:32;10.70;99.90
921;DHT22;447;51.332;6.778;2023-03-14T14:52:06;10.70;99.90
921;DHT22;447;51.332;6.778;2023-03-14T14:54:38;10.70;99.90
921;DHT22;447;51.332;6.778;2023-03-14T14:57:12;10.70;99.90
921;DHT22;447;51.332;6.778;2023-03-14T14:59:43;10.70;99.90
921;DHT22;447;51.332;6.778;2023-03-14T15:02:32;10.70;99.90
921;DHT22;447;51.332;6.778;2023-03-14T15:05:01;10.70;99.90
921;DHT22;447;51.332;6.778;2023-03-14T15:07:27;10.70;99.90
921;DHT22;447;51.332;6.778;2023-03-14T15:09:55;10.70;99.90
921;DHT22;447;51.332;6.778;2023-03-14T15:12:21;10.70;99.90
921;DHT22;447;51.332;6.778;2023-03-14T15:14:50;10.70;99.90
921;DHT22;447;51.332;6.778;2023-03-14T15:17:19;10.70;99.90
921;DHT22;447;51.332;6.778;2023-03-14T15:19:45;10.70;99.90
921;DHT22;447;51.332;6.778;2023-03-14T15:22:14;10.70;99.90
921;DHT22;447;51.332;6.778;2023-03-14T15:24:44;10.70;99.90
921;DHT22;447;51.332;6.778;2023-03-14T15:27:17;10.70;99.90
921;DHT22;447;51.332;6.778;2023-03-14T15:29:44;10.70;99.90
921;DHT22;447;51.332;6.778;2023-03-14T15:32:15;10.70;99.90
921;DHT22;447;51.332;6.778;2023-03-14T15:34:44;10.70;99.90
921;DHT22;447;51.332;6.778;2023-03-14T15:37:15;10.70;99.90
921;DHT22;447;51.332;6.778;2023-03-14T15:39:42;10.70;99.70
921;DHT22;447;51.332;6.778;2023-03-14T15:42:13;10.70;99.60
921;DHT22;447;51.332;6.778;2023-03-14T15:44:42;10.70;99.30
921;DHT22;447;51.332;6.778;2023-03-14T15:47:13;10.70;99.30
921;DHT22;447;51.332;6.778;2023-03-14T15:49:41;10.70;99.20
921;DHT22;447;51.332;6.778;2023-03-14T15:52:08;10.70;99.20
921;DHT22;447;51.332;6.778;2023-03-14T15:54:34;10.70;99.80
921;DHT22;447;51.332;6.778;2023-03-14T15:57:00;10.70;99.50
921;DHT22;447;51.332;6.778;2023-03-14T15:59:28;10.70;99.50
921;DHT22;447;51.332;6.778;2023-03-14T16:01:54;10.60;99.40
921;DHT22;447;51.332;6.778;2023-03-14T16:04:23;10.60;99.40
921;DHT22;447;51.332;6.778;2023-03-14T16:06:51;10.60;99.50
921;DHT22;447;51.332;6.778;2023-03-14T16:09:17;10.60;99.70
921;DHT22;447;51.332;6.778;2023-03-14T16:11:44;10.60;99.60
921;DHT22;447;51.332;6.778;2023-03-14T16:14:16;10.60;99.60
921;DHT22;447;51.332;6.778;2023-03-14T16:16:42;10.60;99.60
921;DHT22;447;51.332;6.778;2023-03-14T16:19:08;10.60;99.50
921;DHT22;447;51.332;6.778;2023-03-14T16:21:37;10.60;99.50
921;DHT22;447;51.332;6.778;2023-03-14T16:24:05;10.50;99.20
921;DHT22;447;51.332;6.778;2023-03-14T16:26:31;10.50;99.10
921;DHT22;447;51.332;6.778;2023-03-14T16:29:02;10.50;98.90
921;DHT22;447;51.332;6.778;2023-03-14T16:31:35;10.50;98.80
921;DHT22;447;51.332;6.778;2023-03-14T16:34:11;10.40;98.80
921;DHT22;447;51.332;6.778;2023-03-14T16:36:42;10.40;98.70
921;DHT22;447;51.332;6.778;2023-03-14T16:39:10;10.40;98.60
921;DHT22;447;51.332;6.778;2023-03-14T16:41:36;10.40;98.60
921;DHT22;447;51.332;6.778;2023-03-14T16:44:06;10.40;98.70
921;DHT22;447;51.332;6.778;2023-03-14T16:46:34;10.40;98.70
921;DHT22;447;51.332;6.778;2023-03-14T16:49:01;10.40;98.70
921;DHT22;447;51.332;6.778;2023-03-14T16:51:27;10.30;98.50
921;DHT22;447;51.332;6.778;2023-03-14T16:53:55;10.30;98.50
921;DHT22;447;51.332;6.778;2023-03-14T16:56:22;10.30;98.50
921;DHT22;447;51.332;6.778;2023-03-14T16:58:50;10.30;98.50
921;DHT22;447;51.332;6.778;2023-03-14T17:01:18;10.30;98.50
921;DHT22;447;51.332;6.778;2023-03-14T17:03:50;10.30;98.60
921;DHT22;447;51.332;6.778;2023-03-14T17:06:22;10.30;98.70
921;DHT22;447;51.332;6.778;2023-03-14T17:08:54;10.30;98.70
921;DHT22;447;51.332;6.778;2023-03-14T17:11:23;10.30;98.80
921;DHT22;447;51.332;6.778;2023-03-14T17:13:49;10.30;98.70
921;DHT22;447;51.332;6.778;2023-03-14T17:16:18;10.20;98.60
921;DHT22;447;51.332;6.778;2023-03-14T17:18:46;10.20;98.40
921;DHT22;447;51.332;6.778;2023-03-14T17:21:17;10.20;98.30
921;DHT22;447;51.332;6.778;2023-03-14T17:23:45;10.20;98.30
921;DHT22;447;51.332;6.778;2023-03-14T17:26:16;10.20;98.30
921;DHT22;447;51.332;6.778;2023-03-14T17:28:44;10.20;98.40
921;DHT22;447;51.332;6.778;2023-03-14T17:31:17;10.20;98.50
921;DHT22;447;51.332;6.778;2023-03-14T17:33:51;10.20;98.60
921;DHT22;447;51.332;6.778;2023-03-14T17:36:22;10.20;98.60
921;DHT22;447;51.332;6.778;2023-03-14T17:38:55;10.20;98.70
921;DHT22;447;51.332;6.778;2023-03-14T17:41:23;10.20;98.70
921;DHT22;447;51.332;6.778;2023-03-14T17:43:49;10.20;98.80
921;DHT22;447;51.332;6.778;2023-03-14T17:46:17;10.20;98.80
921;DHT22;447;51.332;6.778;2023-03-14T17:48:46;10.20;98.80
921;DHT22;447;51.332;6.778;2023-03-14T17:51:16;10.10;98.70
921;DHT22;447;51.332;6.778;2023-03-14T17:53:42;10.10;98.60
921;DHT22;447;51.332;6.778;2023-03-14T17:56:14;10.10;98.40
921;DHT22;447;51.332;6.778;2023-03-14T17:58:42;10.10;98.40
921;DHT22;447;51.332;6.778;2023-03-14T18:01:17;10.10;98.30